createdAt,value
2022-08-28T00:00:35.861Z,45.43
2022-08-28T00:03:02.516Z,45.78
2022-08-28T00:05:31.260Z,46.16
2022-08-28T00:07:59.831Z,45.99
2022-08-28T00:10:27.483Z,46.01
2022-08-28T00:12:55.801Z,46.12
2022-08-28T00:15:27.373Z,46.64
2022-08-28T00:17:53.942Z,47.24
2022-08-28T00:20:21.075Z,46.94
2022-08-28T00:22:48.622Z,47.03
2022-08-28T00:25:16.649Z,46.23
2022-08-28T00:27:55.601Z,45.99
2022-08-28T00:30:28.201Z,45.92
2022-08-28T00:32:57.410Z,45.64
2022-08-28T00:35:24.126Z,45.45
2022-08-28T00:37:51.458Z,45.97
2022-08-28T00:40:30.527Z,45.71
2022-08-28T00:43:01.640Z,46.49
2022-08-28T00:45:28.990Z,46.74
2022-08-28T00:47:55.480Z,47.50
2022-08-28T00:50:25.191Z,47.08
2022-08-28T00:52:55.414Z,47.23
2022-08-28T00:55:24.140Z,47.25
2022-08-28T00:57:54.129Z,47.93
2022-08-28T01:00:33.841Z,48.22
2022-08-28T01:03:01.085Z,48.17
2022-08-28T01:05:28.880Z,48.00
2022-08-28T01:07:58.839Z,48.69
2022-08-28T01:10:28.423Z,48.80
2022-08-28T01:12:56.740Z,49.10
2022-08-28T01:15:28.357Z,48.99
2022-08-28T01:17:58.383Z,49.02
2022-08-28T01:20:28.163Z,49.76
2022-08-28T01:23:00.937Z,49.97
2022-08-28T01:25:31.228Z,49.77
2022-08-28T01:27:58.688Z,49.75
2022-08-28T01:30:25.595Z,50.64
2022-08-28T01:32:54.586Z,50.43
2022-08-28T01:35:27.309Z,50.40
2022-08-28T01:37:55.723Z,50.78
2022-08-28T01:40:31.597Z,50.78
2022-08-28T01:43:10.195Z,51.41
2022-08-28T01:45:37.951Z,51.57
2022-08-28T01:48:06.269Z,51.76
2022-08-28T01:50:34.184Z,51.72
2022-08-28T01:53:01.318Z,52.27
2022-08-28T01:55:28.472Z,52.68
2022-08-28T01:57:56.943Z,53.49
2022-08-28T02:00:27.489Z,53.49
2022-08-28T02:02:57.067Z,54.04
2022-08-28T02:05:25.361Z,54.74
2022-08-28T02:07:52.504Z,55.21
2022-08-28T02:10:22.483Z,55.25
2022-08-28T02:12:50.245Z,56.01
2022-08-28T02:15:17.727Z,56.15
2022-08-28T02:17:45.363Z,56.97
2022-08-28T02:20:12.005Z,57.10
2022-08-28T02:22:38.584Z,57.62
2022-08-28T02:25:06.431Z,58.20
2022-08-28T02:27:33.216Z,58.10
2022-08-28T02:29:59.966Z,58.60
2022-08-28T02:32:26.673Z,58.62
2022-08-28T02:34:53.489Z,58.98
2022-08-28T02:37:20.641Z,58.80
2022-08-28T02:39:47.785Z,59.62
2022-08-28T02:42:14.316Z,59.69
2022-08-28T02:44:42.678Z,59.53
2022-08-28T02:47:09.202Z,60.02
2022-08-28T02:49:36.452Z,60.22
2022-08-28T02:52:03.985Z,61.66
2022-08-28T02:54:31.190Z,61.45
2022-08-28T02:56:58.856Z,60.58
2022-08-28T02:59:25.768Z,60.63
2022-08-28T03:01:52.527Z,60.75
2022-08-28T03:04:19.375Z,60.71
2022-08-28T03:06:46.015Z,61.44
2022-08-28T03:09:12.550Z,61.16
2022-08-28T03:11:41.219Z,61.54
2022-08-28T03:14:07.989Z,61.37
2022-08-28T03:16:34.583Z,61.46
2022-08-28T03:19:01.356Z,61.46
2022-08-28T03:21:28.034Z,61.79
2022-08-28T03:23:55.271Z,61.91
2022-08-28T03:26:24.037Z,61.94
2022-08-28T03:28:53.287Z,62.23
2022-08-28T03:31:23.549Z,62.62
2022-08-28T03:33:50.634Z,62.31
2022-08-28T03:36:21.593Z,62.67
2022-08-28T03:38:48.905Z,62.96
2022-08-28T03:41:18.118Z,63.82
2022-08-28T03:43:45.427Z,63.82
2022-08-28T03:46:22.722Z,63.50
2022-08-28T03:48:50.468Z,62.55
2022-08-28T03:51:28.000Z,62.90
2022-08-28T03:53:58.579Z,62.97
2022-08-28T03:56:26.954Z,63.24
2022-08-28T03:58:59.102Z,63.38
2022-08-28T04:01:26.612Z,63.73
2022-08-28T04:03:53.480Z,63.98
2022-08-28T04:06:20.185Z,63.47
2022-08-28T04:08:47.738Z,63.44
2022-08-28T04:11:15.197Z,63.52
2022-08-28T04:13:42.308Z,63.31
2022-08-28T04:16:12.907Z,63.51
2022-08-28T04:18:41.457Z,63.46
2022-08-28T04:21:21.252Z,63.28
2022-08-28T04:23:47.847Z,63.73
2022-08-28T04:26:17.819Z,63.97
2022-08-28T04:28:45.316Z,63.13
2022-08-28T04:31:11.950Z,63.15
2022-08-28T04:33:39.182Z,62.87
2022-08-28T04:36:09.002Z,62.99
2022-08-28T04:38:39.255Z,62.71
2022-08-28T04:41:12.700Z,63.97
2022-08-28T04:43:39.169Z,63.50
2022-08-28T04:46:08.107Z,63.70
2022-08-28T04:48:35.516Z,62.47
2022-08-28T04:51:02.017Z,62.32
2022-08-28T04:53:29.571Z,61.70
2022-08-28T04:55:58.961Z,63.00
2022-08-28T04:58:27.549Z,62.86
2022-08-28T05:00:54.957Z,61.33
2022-08-28T05:03:22.081Z,61.72
2022-08-28T05:05:51.769Z,60.85
2022-08-28T05:08:20.511Z,61.75
2022-08-28T05:10:47.581Z,61.73
2022-08-28T05:13:19.157Z,61.82
2022-08-28T05:15:47.785Z,61.66
2022-08-28T05:18:15.440Z,61.57
2022-08-28T05:20:44.637Z,61.13
2022-08-28T05:23:12.337Z,60.23
2022-08-28T05:25:41.912Z,58.62
2022-08-28T05:28:12.320Z,57.94
2022-08-28T05:30:40.610Z,57.25
2022-08-28T05:33:08.480Z,57.32
2022-08-28T05:35:37.444Z,57.08
2022-08-28T05:38:05.008Z,57.06
2022-08-28T05:40:31.785Z,57.03
2022-08-28T05:42:59.010Z,57.02
2022-08-28T05:45:25.753Z,56.79
2022-08-28T05:47:52.240Z,56.49
2022-08-28T05:50:19.255Z,56.58
2022-08-28T05:52:45.908Z,56.72
2022-08-28T05:55:13.191Z,56.19
2022-08-28T05:57:40.161Z,55.42
2022-08-28T06:00:09.776Z,55.94
2022-08-28T06:02:36.217Z,56.09
2022-08-28T06:05:02.788Z,56.34
2022-08-28T06:07:29.421Z,55.78
2022-08-28T06:09:55.913Z,56.27
2022-08-28T06:12:22.429Z,55.02
2022-08-28T06:14:49.715Z,54.71
2022-08-28T06:17:16.545Z,55.03
2022-08-28T06:19:50.079Z,55.57
2022-08-28T06:22:16.828Z,55.40
2022-08-28T06:24:43.665Z,54.87
2022-08-28T06:27:10.193Z,53.93
2022-08-28T06:29:36.749Z,53.68
2022-08-28T06:32:05.015Z,53.84
2022-08-28T06:34:31.860Z,54.01
2022-08-28T06:36:58.690Z,53.92
2022-08-28T06:39:25.151Z,52.71
2022-08-28T06:41:51.720Z,53.78
2022-08-28T06:44:20.100Z,53.65
2022-08-28T06:46:48.665Z,51.53
2022-08-28T06:49:15.573Z,43.69
2022-08-28T06:51:42.276Z,40.26
2022-08-28T06:54:09.400Z,38.04
2022-08-28T06:56:36.545Z,37.03
2022-08-28T06:59:03.448Z,33.83
2022-08-28T07:01:33.132Z,30.68
2022-08-28T07:04:04.010Z,27.31
2022-08-28T07:06:32.898Z,26.01
2022-08-28T07:08:59.755Z,24.38
2022-08-28T07:11:29.077Z,23.50
2022-08-28T07:13:57.557Z,23.17
2022-08-28T07:16:27.263Z,22.63
2022-08-28T07:18:54.203Z,21.00
2022-08-28T07:21:21.039Z,20.85
2022-08-28T07:23:47.891Z,21.31
2022-08-28T07:26:19.562Z,20.45
2022-08-28T07:28:47.407Z,20.63
2022-08-28T07:31:18.619Z,20.75
2022-08-28T07:33:45.723Z,20.70
2022-08-28T07:36:29.001Z,19.81
2022-08-28T07:38:58.663Z,18.89
2022-08-28T07:41:28.660Z,18.60
2022-08-28T07:44:13.720Z,18.64
2022-08-28T07:46:40.865Z,18.24
2022-08-28T07:49:08.945Z,18.09
2022-08-28T07:51:35.756Z,16.71
2022-08-28T07:54:04.143Z,17.01
2022-08-28T07:56:31.784Z,16.65
2022-08-28T07:59:00.921Z,17.44
2022-08-28T08:01:30.626Z,18.26
2022-08-28T08:04:01.440Z,19.39
2022-08-28T08:06:33.731Z,20.33
2022-08-28T08:09:02.148Z,21.75
2022-08-28T08:11:32.530Z,23.35
2022-08-28T08:14:05.620Z,24.76
2022-08-28T08:16:38.728Z,26.40
2022-08-28T08:19:05.977Z,27.98
2022-08-28T08:21:32.710Z,29.24
2022-08-28T08:23:59.488Z,28.94
2022-08-28T08:26:30.127Z,28.80
2022-08-28T08:28:59.251Z,29.33
2022-08-28T08:31:32.607Z,29.93
2022-08-28T08:34:02.121Z,30.37
2022-08-28T08:36:29.146Z,31.02
2022-08-28T08:38:59.967Z,31.26
2022-08-28T08:41:41.485Z,30.47
2022-08-28T08:44:18.042Z,30.56
2022-08-28T08:47:16.568Z,30.64
2022-08-28T08:49:53.080Z,30.73
2022-08-28T08:52:52.467Z,30.11
2022-08-28T08:55:31.624Z,30.71
2022-08-28T08:58:07.722Z,32.19
2022-08-28T09:00:39.948Z,32.95
2022-08-28T09:03:45.891Z,31.64
2022-08-28T09:06:40.665Z,31.68
2022-08-28T09:09:21.731Z,31.13
2022-08-28T09:12:00.716Z,33.43
2022-08-28T09:14:44.297Z,33.67
2022-08-28T09:17:12.439Z,34.57
2022-08-28T09:19:39.206Z,34.47
2022-08-28T09:22:05.845Z,34.03
2022-08-28T09:24:36.767Z,32.94
2022-08-28T09:27:19.357Z,32.39
2022-08-28T09:29:54.669Z,32.44
2022-08-28T09:32:25.714Z,32.81
2022-08-28T09:35:06.816Z,33.02
2022-08-28T09:37:35.277Z,33.23
2022-08-28T09:40:50.933Z,33.80
2022-08-28T09:43:27.069Z,34.27
2022-08-28T09:45:59.755Z,35.28
2022-08-28T09:48:52.861Z,34.15
2022-08-28T09:51:22.026Z,34.35
2022-08-28T09:53:57.334Z,33.56
2022-08-28T09:56:39.866Z,33.38
2022-08-28T09:59:20.688Z,32.78
2022-08-28T10:01:50.017Z,34.73
2022-08-28T10:04:31.584Z,34.61
2022-08-28T10:07:33.812Z,35.04
2022-08-28T10:10:24.969Z,33.84
2022-08-28T10:13:14.936Z,34.35
2022-08-28T10:15:43.521Z,34.25
2022-08-28T10:18:45.811Z,34.77
2022-08-28T10:21:24.126Z,35.72
2022-08-28T10:24:02.617Z,33.89
2022-08-28T10:26:52.516Z,35.17
2022-08-28T10:29:33.687Z,33.68
2022-08-28T10:32:16.057Z,35.78
2022-08-28T10:35:20.881Z,34.36
2022-08-28T10:38:19.540Z,34.20
2022-08-28T10:41:03.469Z,32.57
2022-08-28T10:43:34.217Z,32.30
2022-08-28T10:46:41.770Z,32.02
2022-08-28T10:49:33.369Z,32.16
2022-08-28T10:52:04.720Z,33.82
2022-08-28T10:54:40.851Z,31.73
2022-08-28T10:57:17.451Z,31.98
2022-08-28T10:59:46.807Z,31.40
2022-08-28T11:02:14.258Z,30.06
2022-08-28T11:04:41.002Z,30.81
2022-08-28T11:07:09.873Z,30.42
2022-08-28T11:09:46.049Z,30.77
2022-08-28T11:12:20.086Z,30.84
2022-08-28T11:14:49.490Z,31.04
2022-08-28T11:17:39.629Z,30.56
2022-08-28T11:20:12.104Z,30.01
2022-08-28T11:22:43.089Z,28.61
2022-08-28T11:25:32.530Z,29.29
2022-08-28T11:28:22.453Z,29.87
2022-08-28T11:30:58.952Z,30.36
2022-08-28T11:33:49.896Z,30.93
2022-08-28T11:36:19.689Z,32.40
2022-08-28T11:38:46.912Z,32.58
2022-08-28T11:41:36.601Z,32.44
2022-08-28T11:44:18.602Z,30.54
2022-08-28T11:46:47.508Z,29.55
2022-08-28T11:49:26.611Z,29.18
2022-08-28T11:52:23.908Z,30.64
2022-08-28T11:54:52.474Z,31.83
2022-08-28T11:57:24.752Z,31.91
2022-08-28T12:00:00.771Z,31.03
2022-08-28T12:02:44.220Z,30.29
2022-08-28T12:05:17.330Z,29.57
2022-08-28T12:07:47.123Z,29.01
2022-08-28T12:10:22.926Z,28.44
2022-08-28T12:12:55.869Z,29.10
2022-08-28T12:15:28.782Z,29.77
2022-08-28T12:18:00.928Z,30.29
2022-08-28T12:20:35.942Z,31.85
2022-08-28T12:23:24.536Z,31.67
2022-08-28T12:26:03.297Z,30.94
2022-08-28T12:28:51.073Z,32.45
2022-08-28T12:32:12.391Z,32.11
2022-08-28T12:34:51.159Z,33.17
2022-08-28T12:37:39.532Z,33.50
2022-08-28T12:40:25.581Z,32.67
2022-08-28T12:42:56.449Z,32.84
2022-08-28T12:45:31.197Z,28.84
2022-08-28T12:48:01.839Z,28.63
2022-08-28T12:50:31.143Z,27.74
2022-08-28T12:53:02.789Z,28.78
2022-08-28T12:55:29.489Z,30.02
2022-08-28T12:58:02.050Z,29.46
2022-08-28T13:00:37.317Z,30.24
2022-08-28T13:03:07.571Z,31.99
2022-08-28T13:05:39.771Z,32.41
2022-08-28T13:08:09.360Z,32.35
2022-08-28T13:10:49.228Z,31.80
2022-08-28T13:13:40.560Z,31.19
2022-08-28T13:16:10.235Z,31.35
2022-08-28T13:18:47.556Z,31.38
2022-08-28T13:21:33.466Z,31.12
2022-08-28T13:24:24.215Z,32.19
2022-08-28T13:27:05.969Z,32.12
2022-08-28T13:29:33.078Z,31.89
2022-08-28T13:32:06.839Z,32.39
2022-08-28T13:34:37.978Z,31.22
2022-08-28T13:37:14.990Z,30.88
2022-08-28T13:39:47.417Z,30.61
2022-08-28T13:42:16.284Z,29.22
2022-08-28T13:44:57.853Z,30.95
2022-08-28T13:47:25.695Z,30.85
2022-08-28T13:49:52.391Z,31.18
2022-08-28T13:52:19.789Z,31.43
2022-08-28T13:54:47.019Z,32.16
2022-08-28T13:57:14.091Z,31.77
2022-08-28T13:59:41.596Z,30.28
2022-08-28T14:02:29.878Z,32.01
2022-08-28T14:04:56.834Z,33.01
2022-08-28T14:07:23.761Z,33.63
2022-08-28T14:09:55.506Z,33.85
2022-08-28T14:12:24.956Z,34.25
2022-08-28T14:14:59.792Z,34.89
2022-08-28T14:17:26.638Z,34.78
2022-08-28T14:19:53.282Z,34.63
2022-08-28T14:22:19.929Z,34.89
2022-08-28T14:24:46.815Z,34.97
2022-08-28T14:27:13.355Z,34.92
2022-08-28T14:29:39.943Z,35.87
2022-08-28T14:32:06.760Z,36.48
2022-08-28T14:34:33.715Z,38.64
2022-08-28T14:37:01.753Z,40.99
2022-08-28T14:39:28.495Z,44.58
2022-08-28T14:41:55.471Z,51.17
2022-08-28T14:44:23.535Z,49.19
2022-08-28T14:46:51.786Z,50.20
2022-08-28T14:49:23.653Z,48.07
2022-08-28T14:51:50.808Z,53.36
2022-08-28T14:54:19.804Z,54.16
2022-08-28T14:56:47.977Z,52.71
2022-08-28T14:59:21.906Z,46.07
2022-08-28T15:01:51.094Z,45.17
2022-08-28T15:04:20.102Z,45.33
2022-08-28T15:06:46.695Z,43.52
2022-08-28T15:09:14.192Z,44.45
2022-08-28T15:11:42.227Z,46.20
2022-08-28T15:14:09.108Z,42.66
2022-08-28T15:16:39.353Z,40.99
2022-08-28T15:19:07.145Z,39.32
2022-08-28T15:21:38.601Z,40.18
2022-08-28T15:24:06.804Z,41.07
2022-08-28T15:26:34.178Z,41.25
2022-08-28T15:29:03.596Z,41.45
2022-08-28T15:31:31.592Z,41.73
2022-08-28T15:34:03.267Z,42.78
2022-08-28T15:36:29.864Z,43.65
2022-08-28T15:39:16.797Z,42.77
2022-08-28T15:41:46.985Z,41.47
2022-08-28T15:44:15.119Z,42.80
2022-08-28T15:46:41.846Z,44.22
2022-08-28T15:49:09.268Z,45.21
2022-08-28T15:51:36.126Z,45.29
2022-08-28T15:54:02.767Z,44.32
2022-08-28T15:56:29.252Z,45.11
2022-08-28T15:58:56.023Z,44.95
2022-08-28T16:01:23.360Z,44.66
2022-08-28T16:03:49.939Z,45.48
2022-08-28T16:06:19.954Z,47.23
2022-08-28T16:08:48.192Z,47.53
2022-08-28T16:11:19.584Z,48.61
2022-08-28T16:13:46.554Z,48.94
2022-08-28T16:16:13.138Z,50.38
2022-08-28T16:18:39.661Z,49.57
2022-08-28T16:21:06.544Z,50.90
2022-08-28T16:23:33.411Z,51.40
2022-08-28T16:26:00.631Z,51.31
2022-08-28T16:28:27.695Z,52.85
2022-08-28T16:30:54.364Z,54.13
2022-08-28T16:33:22.275Z,55.38
2022-08-28T16:35:55.011Z,54.44
2022-08-28T16:38:23.496Z,54.78
2022-08-28T16:40:50.044Z,55.27
2022-08-28T16:43:16.697Z,54.78
2022-08-28T16:45:44.923Z,56.13
2022-08-28T16:48:12.828Z,56.88
2022-08-28T16:50:41.129Z,56.83
2022-08-28T16:53:08.448Z,57.11
2022-08-28T16:55:35.105Z,57.12
2022-08-28T16:58:01.754Z,57.13
2022-08-28T17:00:28.493Z,57.56
2022-08-28T17:02:55.032Z,59.14
2022-08-28T17:05:21.680Z,58.45
2022-08-28T17:07:48.292Z,60.27
2022-08-28T17:10:19.809Z,60.79
2022-08-28T17:12:46.497Z,61.59
2022-08-28T17:15:13.842Z,61.11
2022-08-28T17:17:41.114Z,61.89
2022-08-28T17:20:08.809Z,62.13
2022-08-28T17:22:35.484Z,62.85
2022-08-28T17:25:03.162Z,64.33
2022-08-28T17:27:32.034Z,64.47
2022-08-28T17:29:59.816Z,65.12
2022-08-28T17:32:26.353Z,62.10
2022-08-28T17:34:53.237Z,59.35
2022-08-28T17:37:20.828Z,59.05
2022-08-28T17:39:48.074Z,62.34
2022-08-28T17:42:15.725Z,65.06
2022-08-28T17:44:42.808Z,67.22
2022-08-28T17:47:09.611Z,69.57
2022-08-28T17:49:36.143Z,70.86
2022-08-28T17:52:03.438Z,72.10
2022-08-28T17:54:30.286Z,72.60
2022-08-28T17:56:57.320Z,73.39
2022-08-28T17:59:25.096Z,74.27
2022-08-28T18:01:51.991Z,74.87
2022-08-28T18:04:23.898Z,75.59
2022-08-28T18:06:54.092Z,76.70
2022-08-28T18:09:21.563Z,76.94
2022-08-28T18:11:48.553Z,77.45
2022-08-28T18:14:15.459Z,78.80
2022-08-28T18:16:42.135Z,79.06
2022-08-28T18:19:10.314Z,80.67
2022-08-28T18:21:38.483Z,81.74
2022-08-28T18:24:05.310Z,82.21
2022-08-28T18:26:31.957Z,83.18
2022-08-28T18:29:01.838Z,83.29
2022-08-28T18:31:28.683Z,83.10
2022-08-28T18:33:55.561Z,83.49
2022-08-28T18:36:23.306Z,83.70
2022-08-28T18:38:50.697Z,84.41
2022-08-28T18:41:19.666Z,84.69
2022-08-28T18:43:46.887Z,85.33
2022-08-28T18:46:14.332Z,85.47
2022-08-28T18:48:41.717Z,84.32
2022-08-28T18:51:10.497Z,84.28
2022-08-28T18:53:37.668Z,84.62
2022-08-28T18:56:06.047Z,83.82
2022-08-28T18:58:33.101Z,84.08
2022-08-28T19:01:01.031Z,84.70
2022-08-28T19:03:27.927Z,85.97
2022-08-28T19:05:57.693Z,85.52
2022-08-28T19:08:25.317Z,85.81
2022-08-28T19:10:52.237Z,86.13
2022-08-28T19:13:20.780Z,87.21
2022-08-28T19:15:52.671Z,87.06
2022-08-28T19:18:19.869Z,87.15
2022-08-28T19:20:47.173Z,87.92
2022-08-28T19:23:17.415Z,87.74
2022-08-28T19:25:44.976Z,88.45
2022-08-28T19:28:11.683Z,89.41
2022-08-28T19:30:38.226Z,88.92
2022-08-28T19:33:05.889Z,89.72
2022-08-28T19:35:33.767Z,89.99
2022-08-28T19:38:01.319Z,89.36
2022-08-28T19:40:27.975Z,90.08
2022-08-28T19:42:54.953Z,90.49
2022-08-28T19:45:22.130Z,91.12
2022-08-28T19:47:49.077Z,91.37
2022-08-28T19:50:16.188Z,90.97
2022-08-28T19:52:43.472Z,91.03
2022-08-28T19:55:17.692Z,90.82
2022-08-28T19:57:46.194Z,90.61
2022-08-28T20:00:15.160Z,90.51
2022-08-28T20:02:41.894Z,91.25
2022-08-28T20:05:09.042Z,91.40
2022-08-28T20:07:35.688Z,91.66
2022-08-28T20:10:02.445Z,91.85
2022-08-28T20:12:29.107Z,91.65
2022-08-28T20:15:01.289Z,92.19
2022-08-28T20:17:29.981Z,91.90
2022-08-28T20:20:02.322Z,91.45
2022-08-28T20:22:29.573Z,90.88
2022-08-28T20:24:57.072Z,90.83
2022-08-28T20:27:23.792Z,91.15
2022-08-28T20:29:50.523Z,91.11
2022-08-28T20:32:17.180Z,90.70
2022-08-28T20:34:44.697Z,90.11
2022-08-28T20:37:11.361Z,89.98
2022-08-28T20:39:41.450Z,89.98
2022-08-28T20:42:09.537Z,89.62
2022-08-28T20:44:36.185Z,89.57
2022-08-28T20:47:03.168Z,89.80
2022-08-28T20:49:29.776Z,90.38
2022-08-28T20:51:58.475Z,90.32
2022-08-28T20:54:30.953Z,90.16
2022-08-28T20:57:02.515Z,90.23
2022-08-28T20:59:37.240Z,90.37
2022-08-28T21:02:09.552Z,90.72
2022-08-28T21:04:38.806Z,91.54
2022-08-28T21:07:06.201Z,91.86
2022-08-28T21:09:39.604Z,92.03
2022-08-28T21:12:19.895Z,92.12
2022-08-28T21:14:51.401Z,92.26
2022-08-28T21:17:29.991Z,92.00
2022-08-28T21:20:02.959Z,92.29
2022-08-28T21:22:31.951Z,93.14
2022-08-28T21:24:59.823Z,93.63
2022-08-28T21:27:26.968Z,94.25
2022-08-28T21:29:58.678Z,93.83
2022-08-28T21:32:26.765Z,94.26
2022-08-28T21:34:54.523Z,94.48
2022-08-28T21:37:21.262Z,95.35
2022-08-28T21:39:47.929Z,94.76
2022-08-28T21:42:14.458Z,95.57
2022-08-28T21:44:41.007Z,95.20
2022-08-28T21:47:18.930Z,95.04
2022-08-28T21:49:48.016Z,94.93
2022-08-28T21:52:14.644Z,94.78
2022-08-28T21:54:41.280Z,94.86
2022-08-28T21:57:07.906Z,94.66
2022-08-28T21:59:37.882Z,94.61
2022-08-28T22:02:05.471Z,95.82
2022-08-28T22:04:32.425Z,97.08
2022-08-28T22:06:59.010Z,97.04
2022-08-28T22:09:25.841Z,98.36
2022-08-28T22:11:52.473Z,99.27
2022-08-28T22:14:19.002Z,100.00
2022-08-28T22:16:46.370Z,100.00
2022-08-28T22:19:12.961Z,100.00
2022-08-28T22:21:58.469Z,100.00
2022-08-28T22:24:25.002Z,100.00
2022-08-28T22:26:57.321Z,100.00
2022-08-28T22:29:24.433Z,100.00
2022-08-28T22:31:51.071Z,100.00
2022-08-28T22:34:17.741Z,100.00
2022-08-28T22:36:44.483Z,100.00
2022-08-28T22:39:11.106Z,100.00
2022-08-28T22:41:37.688Z,100.00
2022-08-28T22:44:05.494Z,100.00
2022-08-28T22:46:31.961Z,100.00
2022-08-28T22:48:59.439Z,100.00
2022-08-28T22:51:26.302Z,100.00
2022-08-28T22:53:52.880Z,100.00
2022-08-28T22:56:20.436Z,100.00
2022-08-28T22:58:47.133Z,100.00
2022-08-28T23:01:19.716Z,100.00
2022-08-28T23:03:46.970Z,100.00
2022-08-28T23:06:14.013Z,100.00
2022-08-28T23:08:40.578Z,100.00
2022-08-28T23:11:07.239Z,100.00
2022-08-28T23:13:34.556Z,100.00
2022-08-28T23:16:01.484Z,100.00
2022-08-28T23:18:28.551Z,100.00
2022-08-28T23:20:55.414Z,100.00
2022-08-28T23:23:22.941Z,100.00
2022-08-28T23:25:50.437Z,100.00
2022-08-28T23:28:17.664Z,100.00
2022-08-28T23:30:48.591Z,100.00
2022-08-28T23:33:23.745Z,100.00
2022-08-28T23:35:51.958Z,100.00
2022-08-28T23:38:18.720Z,100.00
2022-08-28T23:40:46.066Z,100.00
2022-08-28T23:43:12.606Z,100.00
2022-08-28T23:45:41.270Z,100.00
2022-08-28T23:48:08.217Z,100.00
2022-08-28T23:50:34.829Z,100.00
2022-08-28T23:53:01.479Z,100.00
2022-08-28T23:55:28.109Z,100.00
2022-08-28T23:57:54.631Z,100.00
